0G7 weather

Finger Lakes Regional Airport
Seneca Falls, New York, United States

Public forecast

Using degrees Fahrenheit for public forecast. Weather courtesy of forecast.io.

Closest aviation weather report (METAR) to Finger Lakes Regional Airport

Closest report is Penn Yan Airport, 19.0 nm (35.3 km) SW. Retrieved 2019/10/19 10:53 UTC (29 minutes ago):

KPEO 191053Z AUTO 22005KT 5SM BR OVC001 03/02 A3007 RMK AO2 SLP191 T00280022

Closest aviation forecast (TAF) to Finger Lakes Regional Airport

Closest forecast is Ithaca Tompkins Regional Airport, 27.5 nm (51.0 km) SSE. Retrieved 2019/10/19 06:22 UTC (5 hours ago):

TAF KITH 190520Z 1906/2006 00000KT P6SM SCT035 FM191200 14002KT P6SM SCT250